createdAt,value
2022-08-07T00:00:47.212Z,0.00
2022-08-07T00:02:37.035Z,0.00
2022-08-07T00:02:48.189Z,0.00
2022-08-07T00:03:47.626Z,0.00
2022-08-07T00:04:47.191Z,0.00
2022-08-07T00:05:47.172Z,0.00
2022-08-07T00:06:51.901Z,0.00
2022-08-07T00:07:48.133Z,0.00
2022-08-07T00:08:48.133Z,0.00
2022-08-07T00:09:59.249Z,0.00
2022-08-07T00:10:57.492Z,0.00
2022-08-07T00:11:56.152Z,0.00
2022-08-07T00:12:58.054Z,0.00
2022-08-07T00:13:48.107Z,0.00
2022-08-07T00:14:47.073Z,0.00
2022-08-07T00:15:51.164Z,0.00
2022-08-07T00:16:47.052Z,0.00
2022-08-07T00:17:47.115Z,0.00
2022-08-07T00:18:47.167Z,0.00
2022-08-07T00:20:01.624Z,0.00
2022-08-07T00:20:48.008Z,0.00
2022-08-07T00:21:57.335Z,0.00
2022-08-07T00:22:51.715Z,0.00
2022-08-07T00:23:47.538Z,0.00
2022-08-07T00:24:46.945Z,0.00
2022-08-07T00:25:52.085Z,0.00
2022-08-07T00:26:49.184Z,0.00
2022-08-07T00:27:52.370Z,0.00
2022-08-07T00:28:56.523Z,0.00
2022-08-07T00:29:47.907Z,0.00
2022-08-07T00:30:46.906Z,0.00
2022-08-07T00:31:46.884Z,0.00
2022-08-07T00:32:46.868Z,0.00
2022-08-07T00:33:47.585Z,0.00
2022-08-07T00:34:46.874Z,0.00
2022-08-07T00:35:49.589Z,0.00
2022-08-07T00:36:46.847Z,0.00
2022-08-07T00:37:47.941Z,0.00
2022-08-07T00:38:46.829Z,0.00
2022-08-07T00:39:54.381Z,0.00
2022-08-07T00:40:47.793Z,0.00
2022-08-07T00:41:53.923Z,0.00
2022-08-07T00:42:47.778Z,0.00
2022-08-07T00:43:59.664Z,0.00
2022-08-07T00:44:47.740Z,0.00
2022-08-07T00:45:46.777Z,0.00
2022-08-07T00:46:46.738Z,0.00
2022-08-07T00:48:18.420Z,0.00
2022-08-07T00:48:49.852Z,0.00
2022-08-07T00:50:20.813Z,0.00
2022-08-07T00:50:51.274Z,0.00
2022-08-07T00:51:57.778Z,0.00
2022-08-07T00:52:47.723Z,0.00
2022-08-07T00:53:54.998Z,0.00
2022-08-07T00:54:53.428Z,0.00
2022-08-07T00:56:03.371Z,0.00
2022-08-07T00:56:49.975Z,0.00
2022-08-07T00:57:55.764Z,0.00
2022-08-07T00:58:49.496Z,0.00
2022-08-07T00:59:46.574Z,0.00
2022-08-07T01:00:53.613Z,0.00
2022-08-07T01:01:47.606Z,0.00
2022-08-07T01:02:46.565Z,0.00
2022-08-07T01:03:55.954Z,0.00
2022-08-07T01:04:47.553Z,0.00
2022-08-07T01:05:53.622Z,0.00
2022-08-07T01:06:47.508Z,0.00
2022-08-07T01:07:46.512Z,0.00
2022-08-07T01:08:51.531Z,0.00
2022-08-07T01:10:05.754Z,0.00
2022-08-07T01:10:47.682Z,0.00
2022-08-07T01:12:09.037Z,0.00
2022-08-07T01:12:54.078Z,0.00
2022-08-07T01:13:55.821Z,0.00
2022-08-07T01:14:47.422Z,0.00
2022-08-07T01:16:05.066Z,0.00
2022-08-07T01:16:47.973Z,0.00
2022-08-07T01:17:46.562Z,0.00
2022-08-07T01:18:46.451Z,0.00
2022-08-07T01:19:54.230Z,0.00
2022-08-07T01:20:57.265Z,0.00
2022-08-07T01:21:47.361Z,0.00
2022-08-07T01:22:46.753Z,0.00
2022-08-07T01:23:47.319Z,0.00
2022-08-07T01:24:46.308Z,0.00
2022-08-07T01:25:56.127Z,0.00
2022-08-07T01:26:51.778Z,0.00
2022-08-07T01:27:51.225Z,0.00
2022-08-07T01:28:48.279Z,0.00
2022-08-07T01:29:46.255Z,0.00
2022-08-07T01:30:46.250Z,0.00
2022-08-07T01:31:48.283Z,0.00
2022-08-07T01:32:46.336Z,0.00
2022-08-07T01:33:55.835Z,0.00
2022-08-07T01:34:49.240Z,0.00
2022-08-07T01:35:54.130Z,0.00
2022-08-07T01:36:52.709Z,0.00
2022-08-07T01:37:47.173Z,0.00
2022-08-07T01:38:46.210Z,0.00
2022-08-07T01:39:46.947Z,0.00
2022-08-07T01:40:46.181Z,0.00
2022-08-07T01:42:01.517Z,0.00
2022-08-07T01:42:57.573Z,0.00
2022-08-07T01:43:47.109Z,0.00
2022-08-07T01:44:47.936Z,0.00
2022-08-07T01:45:46.661Z,0.00
2022-08-07T01:46:46.115Z,0.00
2022-08-07T01:48:19.414Z,0.00
2022-08-07T01:48:47.534Z,0.00
2022-08-07T01:49:46.057Z,0.00
2022-08-07T01:50:47.045Z,0.00
2022-08-07T01:52:04.170Z,0.00
2022-08-07T01:52:49.674Z,0.00
2022-08-07T01:54:12.729Z,0.00
2022-08-07T01:54:46.991Z,0.00
2022-08-07T01:55:45.997Z,0.00
2022-08-07T01:56:49.509Z,0.00
2022-08-07T01:58:05.883Z,0.00
2022-08-07T01:58:46.958Z,0.00
2022-08-07T01:59:45.956Z,0.00
2022-08-07T02:00:49.378Z,0.00
2022-08-07T02:01:59.875Z,0.00
2022-08-07T02:03:19.222Z,0.00
2022-08-07T02:03:51.192Z,0.00
2022-08-07T02:04:56.335Z,0.00
2022-08-07T02:05:53.647Z,0.00
2022-08-07T02:06:46.860Z,0.00
2022-08-07T02:07:50.446Z,0.00
2022-08-07T02:08:46.840Z,0.00
2022-08-07T02:09:53.178Z,0.00
2022-08-07T02:10:48.653Z,0.00
2022-08-07T02:12:04.833Z,0.00
2022-08-07T02:12:50.241Z,0.00
2022-08-07T02:14:00.708Z,0.00
2022-08-07T02:14:46.794Z,0.00
2022-08-07T02:15:45.770Z,0.00
2022-08-07T02:16:45.751Z,0.00
2022-08-07T02:17:49.219Z,0.00
2022-08-07T02:18:47.147Z,0.00
2022-08-07T02:20:04.348Z,0.00
2022-08-07T02:20:48.725Z,0.00
2022-08-07T02:21:55.088Z,0.00
2022-08-07T02:22:46.681Z,0.00
2022-08-07T02:23:46.695Z,0.00
2022-08-07T02:24:45.676Z,0.00
2022-08-07T02:26:31.729Z,0.00
2022-08-07T02:26:46.686Z,0.00
2022-08-07T02:27:51.898Z,0.00
2022-08-07T02:28:46.634Z,0.00
2022-08-07T02:29:54.239Z,0.00
2022-08-07T02:30:46.634Z,0.00
2022-08-07T02:31:45.597Z,0.00
2022-08-07T02:33:00.439Z,0.00
2022-08-07T02:34:01.903Z,0.00
2022-08-07T02:34:50.988Z,0.00
2022-08-07T02:36:29.723Z,0.00
2022-08-07T02:36:46.539Z,0.00
2022-08-07T02:37:45.536Z,0.00
2022-08-07T02:38:50.950Z,0.00
2022-08-07T02:40:02.075Z,0.00
2022-08-07T02:40:46.768Z,0.00
2022-08-07T02:41:50.673Z,0.00
2022-08-07T02:42:46.468Z,0.00
2022-08-07T02:43:48.864Z,0.00
2022-08-07T02:44:48.725Z,0.00
2022-08-07T02:45:59.297Z,0.00
2022-08-07T02:46:46.738Z,0.00
2022-08-07T02:47:49.146Z,0.00
2022-08-07T02:48:54.637Z,0.00
2022-08-07T02:49:59.060Z,0.00
2022-08-07T02:50:46.339Z,0.00
2022-08-07T02:51:51.880Z,0.00
2022-08-07T02:52:47.838Z,0.00
2022-08-07T02:53:45.380Z,0.00
2022-08-07T02:54:45.340Z,0.00
2022-08-07T02:56:03.452Z,0.00
2022-08-07T02:56:46.285Z,0.00
2022-08-07T02:57:46.720Z,0.00
2022-08-07T02:58:47.299Z,0.00
2022-08-07T02:59:45.320Z,0.00
2022-08-07T03:00:47.009Z,0.00
2022-08-07T03:01:47.234Z,0.00
2022-08-07T03:02:54.542Z,0.00
2022-08-07T03:03:50.525Z,0.00
2022-08-07T03:04:45.193Z,0.00
2022-08-07T03:05:45.195Z,0.00
2022-08-07T03:06:45.881Z,0.00
2022-08-07T03:08:07.682Z,0.00
2022-08-07T03:08:46.144Z,0.00
2022-08-07T03:09:48.262Z,0.00
2022-08-07T03:10:47.011Z,0.00
2022-08-07T03:11:52.273Z,0.00
2022-08-07T03:12:46.099Z,0.00
2022-08-07T03:13:49.824Z,0.00
2022-08-07T03:14:48.614Z,0.00
2022-08-07T03:15:55.959Z,0.00
2022-08-07T03:16:46.085Z,0.00
2022-08-07T03:17:53.010Z,0.00
2022-08-07T03:18:46.507Z,0.00
2022-08-07T03:19:45.033Z,0.00
2022-08-07T03:20:46.017Z,0.00
2022-08-07T03:21:45.583Z,0.00
2022-08-07T03:22:50.002Z,0.00
2022-08-07T03:24:18.961Z,0.00
2022-08-07T03:24:45.986Z,0.00
2022-08-07T03:25:44.967Z,5.62
2022-08-07T03:26:57.941Z,5.62
2022-08-07T03:28:09.222Z,5.62
2022-08-07T03:28:45.929Z,5.62
2022-08-07T03:29:50.495Z,5.62
2022-08-07T03:30:45.920Z,5.62
2022-08-07T03:31:46.478Z,5.62
2022-08-07T03:32:58.192Z,5.62
2022-08-07T03:33:45.884Z,5.62
2022-08-07T03:34:47.548Z,5.62
2022-08-07T03:35:50.478Z,11.25
2022-08-07T03:36:44.849Z,11.25
2022-08-07T03:37:46.154Z,11.25
2022-08-07T03:38:45.840Z,11.25
2022-08-07T03:39:59.975Z,11.25
2022-08-07T03:40:45.872Z,16.88
2022-08-07T03:41:47.625Z,16.88
2022-08-07T03:42:45.795Z,16.88
2022-08-07T03:43:56.855Z,16.88
2022-08-07T03:44:47.114Z,16.88
2022-08-07T03:45:47.465Z,22.50
2022-08-07T03:47:11.454Z,22.50
2022-08-07T03:47:51.091Z,22.50
2022-08-07T03:49:02.502Z,22.50
2022-08-07T03:49:47.840Z,22.50
2022-08-07T03:50:56.241Z,28.12
2022-08-07T03:51:47.482Z,28.12
2022-08-07T03:52:45.684Z,28.12
2022-08-07T03:54:05.514Z,28.12
2022-08-07T03:55:53.064Z,33.75
2022-08-07T03:56:40.382Z,33.75
2022-08-07T03:58:34.295Z,33.75
2022-08-07T03:59:06.973Z,33.75
2022-08-07T03:59:46.694Z,33.75
2022-08-07T04:00:46.495Z,39.38
2022-08-07T04:01:40.443Z,39.38
2022-08-07T04:02:41.359Z,39.38
2022-08-07T04:03:53.522Z,39.38
2022-08-07T04:04:40.314Z,45.00
2022-08-07T04:05:41.943Z,45.00
2022-08-07T04:06:39.286Z,45.00
2022-08-07T04:07:42.769Z,50.62
2022-08-07T04:08:40.290Z,50.62
2022-08-07T04:09:45.226Z,56.25
2022-08-07T04:10:42.381Z,56.25
2022-08-07T04:12:21.160Z,61.88
2022-08-07T04:12:40.225Z,61.88
2022-08-07T04:14:10.098Z,67.50
2022-08-07T04:14:43.679Z,67.50
2022-08-07T04:15:40.216Z,67.50
2022-08-07T04:16:40.338Z,73.12
2022-08-07T04:18:56.708Z,73.12
2022-08-07T04:18:59.293Z,73.12
2022-08-07T04:19:52.398Z,78.75
2022-08-07T04:20:40.149Z,78.75
2022-08-07T04:21:40.141Z,78.75
2022-08-07T04:22:40.134Z,78.75
2022-08-07T04:23:43.754Z,84.38
2022-08-07T04:24:41.183Z,84.38
2022-08-07T04:25:40.816Z,90.00
2022-08-07T04:26:39.088Z,90.00
2022-08-07T04:27:39.363Z,90.00
2022-08-07T04:28:40.061Z,95.62
2022-08-07T04:29:48.991Z,95.62
2022-08-07T04:30:51.266Z,95.62
2022-08-07T04:32:03.405Z,101.25
2022-08-07T04:32:40.033Z,101.25
2022-08-07T04:33:40.028Z,106.88
2022-08-07T04:34:39.529Z,106.88
2022-08-07T04:35:38.993Z,112.50
2022-08-07T04:36:38.965Z,112.50
2022-08-07T04:38:01.072Z,118.12
2022-08-07T04:38:39.968Z,118.12
2022-08-07T04:39:38.991Z,118.12
2022-08-07T04:40:51.280Z,123.75
2022-08-07T04:41:42.016Z,123.75
2022-08-07T04:42:38.941Z,129.38
2022-08-07T04:44:09.888Z,129.38
2022-08-07T04:45:02.836Z,135.00
2022-08-07T04:45:57.543Z,135.00
2022-08-07T04:46:59.255Z,135.00
2022-08-07T04:48:02.231Z,135.00
2022-08-07T04:48:39.853Z,140.62
2022-08-07T04:49:39.845Z,146.25
2022-08-07T04:50:38.820Z,151.88
2022-08-07T04:51:38.835Z,151.88
2022-08-07T04:52:38.806Z,151.88
2022-08-07T04:53:56.358Z,151.88
2022-08-07T04:54:39.774Z,151.88
2022-08-07T04:58:07.636Z,157.50
2022-08-07T04:58:10.347Z,163.12
2022-08-07T04:58:14.163Z,511.88
2022-08-07T04:59:17.499Z,894.38
2022-08-07T05:00:11.509Z,888.75
2022-08-07T05:00:39.754Z,995.62
2022-08-07T05:01:38.818Z,995.62
2022-08-07T05:02:38.699Z,916.88
2022-08-07T05:04:07.951Z,967.50
2022-08-07T05:04:47.139Z,1220.62
2022-08-07T05:05:52.945Z,1535.62
2022-08-07T05:06:43.256Z,1479.38
2022-08-07T05:07:48.600Z,1434.38
2022-08-07T05:08:59.895Z,1642.50
2022-08-07T05:09:45.708Z,1873.12
2022-08-07T05:10:39.629Z,1957.50
2022-08-07T05:11:56.800Z,2193.75
2022-08-07T05:12:46.189Z,2362.50
2022-08-07T05:14:53.404Z,1524.38
2022-08-07T05:14:55.859Z,1963.12
2022-08-07T05:15:39.561Z,1366.88
2022-08-07T05:16:43.856Z,1411.88
2022-08-07T05:17:52.839Z,1198.12
2022-08-07T05:18:39.523Z,978.75
2022-08-07T05:19:44.858Z,1136.25
2022-08-07T05:20:39.504Z,1366.88
2022-08-07T05:22:00.889Z,1243.12
2022-08-07T05:22:39.580Z,1125.00
2022-08-07T05:23:38.473Z,1338.75
2022-08-07T05:24:40.442Z,1276.88
2022-08-07T05:26:13.771Z,956.25
2022-08-07T05:26:39.437Z,832.50
2022-08-07T05:28:03.307Z,1006.88
2022-08-07T05:28:40.601Z,1119.38
2022-08-07T05:29:39.063Z,978.75
2022-08-07T05:30:39.864Z,883.12
2022-08-07T05:31:38.400Z,922.50
2022-08-07T05:32:38.398Z,922.50
2022-08-07T05:33:38.365Z,939.38
2022-08-07T05:34:38.368Z,961.88
2022-08-07T05:35:41.713Z,815.62
2022-08-07T05:36:39.119Z,843.75
2022-08-07T05:37:40.819Z,916.88
2022-08-07T05:39:01.418Z,860.62
2022-08-07T05:40:13.485Z,770.62
2022-08-07T05:40:42.803Z,787.50
2022-08-07T05:42:01.779Z,821.25
2022-08-07T05:42:39.410Z,804.38
2022-08-07T05:43:50.035Z,753.75
2022-08-07T05:44:46.403Z,725.62
2022-08-07T05:45:47.354Z,686.25
2022-08-07T05:46:39.270Z,658.12
2022-08-07T05:48:01.617Z,691.88
2022-08-07T05:48:58.626Z,708.75
2022-08-07T05:49:40.965Z,691.88
2022-08-07T05:50:39.621Z,720.00
2022-08-07T05:51:39.956Z,714.38
2022-08-07T05:52:38.167Z,703.12
2022-08-07T05:54:14.105Z,691.88
2022-08-07T05:54:53.586Z,703.12
2022-08-07T05:56:01.894Z,720.00
2022-08-07T05:56:39.124Z,663.75
2022-08-07T05:57:38.311Z,624.38
2022-08-07T05:58:39.070Z,646.88
2022-08-07T05:59:39.041Z,697.50
2022-08-07T06:00:39.086Z,703.12
2022-08-07T06:01:38.125Z,697.50
2022-08-07T06:02:38.067Z,714.38
2022-08-07T06:03:57.152Z,652.50
2022-08-07T06:04:39.062Z,585.00
2022-08-07T06:05:38.030Z,630.00
2022-08-07T06:06:38.351Z,725.62
2022-08-07T06:08:13.017Z,793.12
2022-08-07T06:08:42.541Z,753.75
2022-08-07T06:10:04.000Z,725.62
2022-08-07T06:10:38.989Z,736.88
2022-08-07T06:11:37.974Z,798.75
2022-08-07T06:12:37.976Z,894.38
2022-08-07T06:14:12.047Z,883.12
2022-08-07T06:14:38.942Z,798.75
2022-08-07T06:15:39.497Z,804.38
2022-08-07T06:16:38.935Z,916.88
2022-08-07T06:17:38.582Z,1006.88
2022-08-07T06:18:37.914Z,916.88
2022-08-07T06:19:57.768Z,1012.50
2022-08-07T06:20:50.941Z,1130.62
2022-08-07T06:22:16.272Z,1215.00
2022-08-07T06:22:40.240Z,1507.50
2022-08-07T06:24:32.562Z,1816.88
2022-08-07T06:24:52.761Z,1822.50
2022-08-07T06:25:38.824Z,1693.12
2022-08-07T06:26:37.836Z,1620.00
2022-08-07T06:28:00.115Z,1496.25
2022-08-07T06:28:38.812Z,1237.50
2022-08-07T06:29:38.956Z,1215.00
2022-08-07T06:30:42.669Z,1113.75
2022-08-07T06:31:49.674Z,1012.50
2022-08-07T06:32:38.849Z,894.38
2022-08-07T06:33:37.834Z,810.00
2022-08-07T06:34:40.613Z,759.38
2022-08-07T06:35:45.670Z,781.88
2022-08-07T06:36:38.729Z,838.12
2022-08-07T06:37:44.106Z,810.00
2022-08-07T06:38:38.718Z,759.38
2022-08-07T06:40:16.943Z,680.62
2022-08-07T06:40:38.720Z,601.88
2022-08-07T06:42:02.656Z,579.38
2022-08-07T06:42:38.672Z,568.12
2022-08-07T06:43:40.011Z,556.88
2022-08-07T06:44:39.650Z,551.25
2022-08-07T06:45:37.622Z,568.12
2022-08-07T06:46:37.604Z,540.00
2022-08-07T06:47:48.337Z,483.75
2022-08-07T06:48:38.585Z,455.62
2022-08-07T06:49:50.824Z,410.62
2022-08-07T06:50:38.892Z,405.00
2022-08-07T06:51:49.735Z,376.88
2022-08-07T06:52:38.742Z,365.62
2022-08-07T06:55:28.350Z,354.38
2022-08-07T06:55:31.489Z,343.12
2022-08-07T06:55:53.745Z,337.50
2022-08-07T06:56:38.657Z,331.88
2022-08-07T06:57:43.433Z,343.12
2022-08-07T06:58:38.668Z,331.88
2022-08-07T07:00:11.856Z,326.25
2022-08-07T07:00:38.457Z,303.75
2022-08-07T07:01:43.813Z,303.75
2022-08-07T07:02:54.003Z,309.38
2022-08-07T07:03:48.890Z,298.12
2022-08-07T07:04:38.472Z,298.12
2022-08-07T07:06:02.385Z,286.88
2022-08-07T07:06:39.358Z,258.75
2022-08-07T07:07:59.796Z,264.38
2022-08-07T07:08:39.890Z,258.75
2022-08-07T07:09:38.385Z,253.12
2022-08-07T07:10:37.353Z,247.50
2022-08-07T07:12:07.622Z,236.25
2022-08-07T07:12:38.346Z,230.62
2022-08-07T07:13:41.647Z,230.62
2022-08-07T07:14:38.326Z,225.00
2022-08-07T07:15:37.757Z,225.00
2022-08-07T07:16:38.907Z,225.00
2022-08-07T07:17:38.828Z,225.00
2022-08-07T07:18:48.225Z,225.00
2022-08-07T07:19:55.264Z,225.00
2022-08-07T07:20:38.246Z,225.00
2022-08-07T07:21:40.453Z,230.62
2022-08-07T07:22:50.947Z,225.00
2022-08-07T07:24:09.133Z,225.00
2022-08-07T07:24:38.209Z,225.00
2022-08-07T07:26:32.658Z,225.00
2022-08-07T07:26:38.211Z,219.38
2022-08-07T07:27:56.361Z,219.38
2022-08-07T07:29:23.493Z,219.38
2022-08-07T07:29:56.955Z,219.38
2022-08-07T07:30:39.700Z,219.38
2022-08-07T07:31:40.172Z,219.38
2022-08-07T07:32:38.160Z,225.00
2022-08-07T07:33:37.140Z,225.00
2022-08-07T07:34:37.130Z,225.00
2022-08-07T07:35:43.810Z,225.00
2022-08-07T07:36:40.541Z,225.00
2022-08-07T07:37:49.482Z,225.00
2022-08-07T07:38:38.093Z,225.00
2022-08-07T07:39:52.462Z,225.00
2022-08-07T07:40:38.053Z,230.62
2022-08-07T07:42:09.083Z,230.62
2022-08-07T07:42:38.027Z,230.62
2022-08-07T07:43:47.736Z,236.25
2022-08-07T07:44:38.035Z,230.62
2022-08-07T07:46:53.810Z,230.62
2022-08-07T07:46:55.823Z,236.25
2022-08-07T07:47:42.907Z,236.25
2022-08-07T07:48:37.965Z,236.25
2022-08-07T07:50:35.484Z,236.25
2022-08-07T07:50:39.082Z,236.25
2022-08-07T07:51:57.858Z,236.25
2022-08-07T07:52:37.926Z,241.88
2022-08-07T07:53:38.234Z,241.88
2022-08-07T07:54:37.948Z,241.88
2022-08-07T07:55:37.391Z,241.88
2022-08-07T07:56:36.917Z,241.88
2022-08-07T07:57:51.625Z,241.88
2022-08-07T07:58:40.872Z,241.88
2022-08-07T07:59:52.575Z,241.88
2022-08-07T08:00:37.865Z,241.88
2022-08-07T08:02:02.047Z,241.88
2022-08-07T08:02:37.876Z,247.50
2022-08-07T08:04:09.986Z,247.50
2022-08-07T08:04:37.844Z,247.50
2022-08-07T08:05:54.310Z,247.50
2022-08-07T08:06:37.780Z,258.75
2022-08-07T08:07:42.454Z,258.75
2022-08-07T08:08:39.285Z,253.12
2022-08-07T08:09:52.214Z,253.12
2022-08-07T08:10:38.799Z,253.12
2022-08-07T08:12:00.008Z,258.75
2022-08-07T08:12:59.266Z,258.75
2022-08-07T08:13:52.894Z,258.75
2022-08-07T08:14:37.713Z,258.75
2022-08-07T08:15:57.907Z,264.38
2022-08-07T08:16:37.677Z,264.38
2022-08-07T08:17:58.148Z,264.38
2022-08-07T08:18:37.714Z,264.38
2022-08-07T08:20:18.552Z,264.38
2022-08-07T08:20:37.646Z,270.00
2022-08-07T08:22:00.595Z,270.00
2022-08-07T08:22:37.642Z,270.00
2022-08-07T08:23:37.595Z,270.00
2022-08-07T08:24:45.620Z,275.62
2022-08-07T08:25:43.014Z,275.62
2022-08-07T08:26:37.587Z,275.62
2022-08-07T08:27:36.604Z,275.62
2022-08-07T08:28:37.381Z,281.25
2022-08-07T08:29:36.557Z,281.25
2022-08-07T08:30:42.817Z,281.25
2022-08-07T08:31:58.956Z,281.25
2022-08-07T08:32:39.330Z,286.88
2022-08-07T08:33:36.528Z,286.88
2022-08-07T08:34:36.528Z,286.88
2022-08-07T08:35:42.832Z,286.88
2022-08-07T08:36:37.461Z,286.88
2022-08-07T08:38:01.311Z,292.50
2022-08-07T08:38:40.570Z,292.50
2022-08-07T08:39:39.480Z,292.50
2022-08-07T08:40:37.412Z,298.12
2022-08-07T08:41:58.720Z,298.12
2022-08-07T08:42:40.312Z,298.12
2022-08-07T08:43:42.137Z,303.75
2022-08-07T08:44:44.491Z,303.75
2022-08-07T08:45:58.764Z,303.75
2022-08-07T08:46:38.111Z,303.75
2022-08-07T08:47:52.173Z,309.38
2022-08-07T08:48:38.377Z,309.38
2022-08-07T08:49:46.164Z,315.00
2022-08-07T08:50:39.523Z,315.00
2022-08-07T08:52:00.819Z,320.62
2022-08-07T08:52:40.855Z,320.62
2022-08-07T08:53:37.305Z,320.62
2022-08-07T08:54:36.942Z,320.62
2022-08-07T08:55:55.266Z,326.25
2022-08-07T08:56:37.254Z,326.25
2022-08-07T08:57:37.236Z,337.50
2022-08-07T08:58:36.273Z,343.12
2022-08-07T08:59:42.051Z,343.12
2022-08-07T09:00:42.685Z,348.75
2022-08-07T09:01:44.205Z,354.38
2022-08-07T09:02:37.732Z,354.38
2022-08-07T09:03:49.493Z,202.50
2022-08-07T09:04:37.180Z,202.50
2022-08-07T09:05:37.620Z,196.88
2022-08-07T09:06:36.160Z,320.62
2022-08-07T09:07:46.437Z,354.38
2022-08-07T09:08:37.158Z,354.38
2022-08-07T09:09:36.743Z,348.75
2022-08-07T09:10:36.114Z,354.38
2022-08-07T09:11:51.166Z,354.38
2022-08-07T09:12:37.081Z,360.00
2022-08-07T09:13:37.686Z,365.62
2022-08-07T09:14:36.073Z,365.62
2022-08-07T09:16:22.556Z,371.25
2022-08-07T09:16:37.040Z,376.88
2022-08-07T09:18:00.351Z,382.50
2022-08-07T09:18:37.041Z,388.12
2022-08-07T09:19:53.033Z,388.12
2022-08-07T09:20:37.143Z,388.12
2022-08-07T09:22:10.072Z,393.75
2022-08-07T09:24:31.402Z,393.75
2022-08-07T09:24:55.559Z,388.12
2022-08-07T09:24:59.347Z,393.75
2022-08-07T09:25:37.675Z,399.38
2022-08-07T09:26:35.955Z,405.00
2022-08-07T09:27:54.752Z,410.62
2022-08-07T09:30:01.165Z,416.25
2022-08-07T09:30:04.039Z,427.50
2022-08-07T09:30:36.917Z,433.12
2022-08-07T09:31:38.542Z,433.12
2022-08-07T09:32:35.878Z,433.12
2022-08-07T09:33:53.118Z,444.38
2022-08-07T09:34:36.861Z,438.75
2022-08-07T09:36:05.014Z,444.38
2022-08-07T09:36:37.449Z,455.62
2022-08-07T09:37:48.355Z,461.25
2022-08-07T09:38:36.802Z,461.25
2022-08-07T09:39:54.475Z,461.25
2022-08-07T09:40:36.837Z,472.50
2022-08-07T09:41:36.481Z,466.88
2022-08-07T09:42:36.783Z,461.25
2022-08-07T09:43:40.019Z,461.25
2022-08-07T09:44:58.697Z,461.25
2022-08-07T09:47:29.137Z,461.25
2022-08-07T09:47:50.659Z,466.88
2022-08-07T09:47:59.101Z,466.88
2022-08-07T09:48:56.130Z,472.50
2022-08-07T09:50:00.452Z,478.12
2022-08-07T09:50:36.714Z,483.75
2022-08-07T09:52:15.745Z,483.75
2022-08-07T09:52:36.665Z,483.75
2022-08-07T09:53:41.161Z,483.75
2022-08-07T09:54:36.701Z,483.75
2022-08-07T09:56:03.580Z,483.75
2022-08-07T09:56:37.571Z,472.50
2022-08-07T09:57:36.622Z,478.12
2022-08-07T09:58:35.627Z,483.75
2022-08-07T09:59:44.309Z,489.38
2022-08-07T10:00:36.689Z,500.62
2022-08-07T10:01:51.391Z,511.88
2022-08-07T10:02:36.568Z,517.50
2022-08-07T10:04:07.118Z,517.50
2022-08-07T10:04:38.271Z,523.12
2022-08-07T10:05:58.924Z,528.75
2022-08-07T10:06:36.742Z,528.75
2022-08-07T10:07:52.364Z,534.38
2022-08-07T10:08:36.594Z,534.38
2022-08-07T10:09:59.040Z,534.38
2022-08-07T10:11:00.367Z,534.38
2022-08-07T10:12:00.592Z,540.00
2022-08-07T10:12:39.689Z,540.00
2022-08-07T10:14:01.294Z,540.00
2022-08-07T10:14:36.426Z,551.25
2022-08-07T10:15:37.867Z,534.38
2022-08-07T10:16:36.439Z,545.62
2022-08-07T10:18:00.770Z,551.25
2022-08-07T10:18:36.527Z,551.25
2022-08-07T10:19:37.763Z,556.88
2022-08-07T10:20:35.740Z,540.00
2022-08-07T10:22:14.982Z,545.62
2022-08-07T10:22:37.500Z,528.75
2022-08-07T10:24:06.227Z,540.00
2022-08-07T10:24:39.639Z,562.50
2022-08-07T10:25:42.559Z,562.50
2022-08-07T10:26:36.301Z,556.88
2022-08-07T10:27:46.189Z,556.88
2022-08-07T10:28:36.299Z,556.88
2022-08-07T10:29:35.308Z,545.62
2022-08-07T10:30:36.298Z,551.25
2022-08-07T10:31:38.830Z,545.62
2022-08-07T10:32:50.978Z,545.62
2022-08-07T10:34:06.174Z,545.62
2022-08-07T10:34:36.226Z,551.25
2022-08-07T10:35:55.939Z,556.88
2022-08-07T10:36:37.736Z,562.50
2022-08-07T10:38:00.527Z,562.50
2022-08-07T10:38:48.086Z,573.75
2022-08-07T10:39:41.189Z,585.00
2022-08-07T10:40:36.176Z,590.62
2022-08-07T10:41:51.522Z,596.25
2022-08-07T10:42:36.520Z,596.25
2022-08-07T10:43:35.286Z,596.25
2022-08-07T10:44:38.296Z,596.25
2022-08-07T10:45:45.453Z,601.88
2022-08-07T10:46:36.100Z,607.50
2022-08-07T10:47:52.744Z,613.12
2022-08-07T10:48:36.115Z,618.75
2022-08-07T10:49:49.337Z,630.00
2022-08-07T10:50:36.065Z,635.62
2022-08-07T10:51:39.584Z,635.62
2022-08-07T10:52:36.050Z,641.25
2022-08-07T10:53:41.926Z,646.88
2022-08-07T10:54:36.024Z,646.88
2022-08-07T10:55:38.675Z,635.62
2022-08-07T10:56:35.003Z,635.62
2022-08-07T10:57:36.881Z,635.62
2022-08-07T10:58:36.744Z,635.62
2022-08-07T10:59:37.167Z,635.62
2022-08-07T11:00:36.506Z,635.62
2022-08-07T11:01:35.707Z,635.62
2022-08-07T11:02:37.898Z,635.62
2022-08-07T11:03:37.753Z,641.25
2022-08-07T11:04:37.794Z,646.88
2022-08-07T11:05:48.597Z,646.88
2022-08-07T11:06:35.888Z,652.50
2022-08-07T11:07:58.440Z,646.88
2022-08-07T11:08:35.885Z,646.88
2022-08-07T11:10:07.237Z,652.50
2022-08-07T11:10:37.207Z,641.25
2022-08-07T11:11:35.584Z,646.88
2022-08-07T11:12:35.215Z,635.62
2022-08-07T11:14:44.468Z,635.62
2022-08-07T11:14:46.080Z,641.25
2022-08-07T11:15:35.825Z,641.25
2022-08-07T11:16:34.821Z,635.62
2022-08-07T11:17:45.556Z,635.62
2022-08-07T11:18:35.772Z,635.62
2022-08-07T11:19:34.780Z,624.38
2022-08-07T11:20:34.761Z,630.00
2022-08-07T11:21:34.733Z,624.38
2022-08-07T11:22:43.898Z,601.88
2022-08-07T11:23:38.677Z,607.50
2022-08-07T11:24:34.696Z,607.50
2022-08-07T11:25:35.929Z,618.75
2022-08-07T11:26:38.460Z,624.38
2022-08-07T11:28:03.207Z,630.00
2022-08-07T11:28:35.676Z,635.62
2022-08-07T11:29:40.944Z,630.00
2022-08-07T11:30:41.390Z,624.38
2022-08-07T11:31:35.623Z,500.62
2022-08-07T11:32:34.620Z,618.75
2022-08-07T11:33:53.875Z,613.12
2022-08-07T11:34:35.606Z,630.00
2022-08-07T11:35:35.596Z,618.75
2022-08-07T11:36:35.577Z,343.12
2022-08-07T11:37:38.482Z,331.88
2022-08-07T11:38:35.555Z,326.25
2022-08-07T11:39:58.970Z,320.62
2022-08-07T11:40:35.555Z,326.25
2022-08-07T11:42:01.472Z,320.62
2022-08-07T11:42:35.512Z,315.00
2022-08-07T11:43:54.640Z,315.00
2022-08-07T11:44:35.483Z,309.38
2022-08-07T11:45:35.804Z,309.38
2022-08-07T11:46:36.695Z,309.38
2022-08-07T11:47:38.539Z,309.38
2022-08-07T11:48:35.481Z,309.38
2022-08-07T11:50:25.142Z,309.38
2022-08-07T11:50:35.442Z,309.38
2022-08-07T11:51:41.363Z,292.50
2022-08-07T11:52:35.742Z,286.88
2022-08-07T11:53:35.378Z,298.12
2022-08-07T11:54:34.411Z,315.00
2022-08-07T11:56:25.689Z,286.88
2022-08-07T11:56:35.361Z,281.25
2022-08-07T11:57:57.893Z,337.50
2022-08-07T11:58:35.363Z,562.50
2022-08-07T12:00:11.996Z,590.62
2022-08-07T12:00:35.326Z,579.38
2022-08-07T12:01:59.021Z,596.25
2022-08-07T12:02:35.376Z,562.50
2022-08-07T12:03:45.341Z,309.38
2022-08-07T12:04:35.298Z,309.38
2022-08-07T12:05:47.691Z,309.38
2022-08-07T12:06:37.512Z,326.25
2022-08-07T12:07:39.160Z,331.88
2022-08-07T12:08:35.327Z,331.88
2022-08-07T12:09:34.239Z,337.50
2022-08-07T12:11:32.364Z,579.38
2022-08-07T12:12:27.571Z,540.00
2022-08-07T12:13:37.052Z,450.00
2022-08-07T12:14:28.539Z,585.00
2022-08-07T12:15:57.998Z,365.62
2022-08-07T12:16:29.619Z,309.38
2022-08-07T12:17:27.521Z,303.75
2022-08-07T12:18:29.828Z,556.88
2022-08-07T12:19:35.991Z,365.62
2022-08-07T12:20:30.205Z,568.12
2022-08-07T12:22:36.190Z,568.12
2022-08-07T12:22:37.239Z,562.50
2022-08-07T12:24:05.106Z,562.50
2022-08-07T12:24:37.898Z,551.25
2022-08-07T12:26:03.199Z,551.25
2022-08-07T12:26:29.707Z,545.62
2022-08-07T12:27:28.079Z,545.62
2022-08-07T12:28:31.322Z,551.25
2022-08-07T12:29:37.888Z,562.50
2022-08-07T12:30:28.383Z,556.88
2022-08-07T12:31:27.473Z,551.25
2022-08-07T12:32:28.361Z,551.25
2022-08-07T12:33:30.815Z,545.62
2022-08-07T12:34:28.340Z,540.00
2022-08-07T12:35:29.174Z,534.38
2022-08-07T12:36:33.579Z,540.00
2022-08-07T12:38:10.835Z,540.00
2022-08-07T12:38:38.511Z,540.00
2022-08-07T12:39:42.264Z,545.62
2022-08-07T12:41:42.679Z,562.50
2022-08-07T12:42:31.881Z,568.12
2022-08-07T12:44:02.415Z,573.75
2022-08-07T12:44:28.235Z,585.00
2022-08-07T12:45:27.225Z,596.25